Airfield :
LOGIN :

Register | Disclaimer

   EN    FR    IT 

 










Legend :    VFR   Marginal VFR   IFR   Intensive IFR   Very Intensive IFR
Visi :
Ceiling :
>= 8 km
>= 3000ft
5 to 8 km
1000 to 3000 ft
1500m to 5 km
500 to 1000 ft
800 to 1500m
200 to 500 ft
< 800m
< 200 ft
Symbols :   Thunderstorms  Fog  Heavy snow  Heavy precipitations  Wind > 20 kt
SIGMETs :     Misc.  Thunderstorms  Icing  Turbulence  Mountain Waves  Volcanic Ashes






- Airport Elevation : 1046 ft
- IATA code : NUE


EDDN - Nuremberg

CURRENT METAR :
  • 230350Z 29011KT 2800 -SN BKN004 00/M00 Q0994 RESN R28/590095

EXPIRED METARs :
  • 230320Z 29011KT 1800 SN BKN003 00/M00 Q0994
  • 230250Z 30012KT 8000 -SNRA SCT005 BKN009 02/01 Q0993
  • 230220Z 31008KT 9999 -RA SCT007 BKN014 03/02 Q0993
  • 230150Z 33007KT 9999 -RA FEW015 BKN025 03/02 Q0992
  • 230120Z 33007KT 9999 -RA FEW015 BKN040 03/02 Q0992

TAF TAF EDDN
Valid from the 23 at 00:00 until the 24 at 00:00 UTC


222300Z 2300/2324 32008KT 9999 SCT006 BKN020
BECMG 2300/2303 4000 -SNRA BKN006
TEMPO 2303/2308 1200 SN VV004
BECMG 2308/2310 9999 FEW012 BKN035
TEMPO 2310/2313 BKN012
BECMG 2314/2316 14006KT
TEMPO 2323/2324 4000 -SN



MET'MAP, your aeronautical weather chart ! - Copyright ORBIFLY December 2007 - Disclaimer

ORBIFLY MET'MAP TEAM :

Programming & Development : Alexandra Zaïnal
Concept & original design : Baudouin d'Aumeries
Assistance for programming : Marc-Olivier Méhu
Technical & hardware support : Manuel Goepfert

Contact : metmap@orbifly.com




SOURCES & CREDITS :

   NOAA